Time;durP1;ratioP1;P1;durP2;ratioP2;P2;SDS_P1;SDS_P2;PMS_P1;PMS_P2;Temp;Humidity;BMP_temperature;BMP_pressure;BME280_temperature;BME280_humidity;BME280_pressure;Samples;Min_cycle;Max_cycle;Signal;HPM_P1;HPM_P2
2022/08/17 00:00:38;;;;;;;5.60;2.25;;;;;;;;;;5042403;28;20049;-70
2022/08/17 00:03:03;;;;;;;2.78;2.58;;;;;;;;;;5041623;28;20060;-69
2022/08/17 00:05:32;;;;;;;5.18;2.70;;;;;;;;;;5042565;28;20044;-74
2022/08/17 00:07:58;;;;;;;5.57;2.78;;;;;;;;;;5041802;28;20064;-70
2022/08/17 00:10:23;;;;;;;10.30;3.15;;;;;;;;;;5042663;28;20040;-70
2022/08/17 00:12:49;;;;;;;5.60;2.70;;;;;;;;;;5042210;28;20511;-71
2022/08/17 00:15:16;;;;;;;3.92;2.63;;;;;;;;;;5041886;28;20539;-69
2022/08/17 00:17:41;;;;;;;5.55;2.70;;;;;;;;;;5042666;28;20049;-69
2022/08/17 00:20:09;;;;;;;3.53;2.85;;;;;;;;;;5040546;28;20499;-70
2022/08/17 00:22:34;;;;;;;4.13;2.60;;;;;;;;;;5040822;28;20549;-72
2022/08/17 00:24:59;;;;;;;3.35;2.50;;;;;;;;;;5041332;28;20049;-69
2022/08/17 00:27:25;;;;;;;4.22;2.72;;;;;;;;;;5041250;28;20103;-71
2022/08/17 00:29:50;;;;;;;8.45;2.90;;;;;;;;;;5042182;28;20064;-69
2022/08/17 00:32:16;;;;;;;3.95;2.72;;;;;;;;;;5040128;28;20057;-71
2022/08/17 00:34:41;;;;;;;3.38;2.70;;;;;;;;;;5042083;28;20052;-73
2022/08/17 00:37:07;;;;;;;6.70;2.75;;;;;;;;;;5041876;28;20076;-73
2022/08/17 00:39:33;;;;;;;8.25;3.40;;;;;;;;;;5041905;28;20150;-72
2022/08/17 00:41:58;;;;;;;5.40;3.25;;;;;;;;;;5040870;28;20040;-70
2022/08/17 00:44:24;;;;;;;21.08;3.42;;;;;;;;;;5041784;28;20115;-70
2022/08/17 00:46:49;;;;;;;6.25;3.05;;;;;;;;;;5041158;28;20051;-71
2022/08/17 00:49:18;;;;;;;10.75;3.22;;;;;;;;;;5041827;28;20044;-70
2022/08/17 00:52:09;;;;;;;7.90;3.30;;;;;;;;;;5041193;28;20053;-73
2022/08/17 00:54:37;;;;;;;6.88;3.58;;;;;;;;;;5024659;28;20502;-70
2022/08/17 00:57:05;;;;;;;6.05;3.28;;;;;;;;;;5041275;28;20063;-72
2022/08/17 00:59:36;;;;;;;3.70;3.40;;;;;;;;;;5042269;28;20064;-73
2022/08/17 01:02:05;;;;;;;4.35;3.45;;;;;;;;;;5040161;28;20076;-70
2022/08/17 01:04:32;;;;;;;3.47;3.17;;;;;;;;;;5041693;28;20175;-69
2022/08/17 01:06:59;;;;;;;7.45;3.90;;;;;;;;;;5041677;28;20067;-69
2022/08/17 01:09:25;;;;;;;5.28;3.42;;;;;;;;;;5040415;28;20049;-74
2022/08/17 01:11:51;;;;;;;6.28;3.38;;;;;;;;;;5039777;28;20052;-69
2022/08/17 01:14:24;;;;;;;7.03;3.80;;;;;;;;;;5039025;28;20068;-69
2022/08/17 01:16:53;;;;;;;4.15;3.58;;;;;;;;;;5040953;28;20483;-70
2022/08/17 01:19:34;;;;;;;6.13;3.75;;;;;;;;;;5040546;28;20049;-72
2022/08/17 01:22:13;;;;;;;7.75;4.10;;;;;;;;;;5040464;28;20045;-73
2022/08/17 01:24:42;;;;;;;6.18;3.40;;;;;;;;;;5041248;28;20063;-72
2022/08/17 01:27:09;;;;;;;8.02;3.60;;;;;;;;;;5039713;28;20048;-70
2022/08/17 01:29:38;;;;;;;5.18;3.67;;;;;;;;;;5038895;28;20048;-70
2022/08/17 01:32:05;;;;;;;7.05;3.78;;;;;;;;;;5039951;28;20164;-70
2022/08/17 01:34:32;;;;;;;5.68;4.10;;;;;;;;;;5040840;28;20045;-73
2022/08/17 01:36:57;;;;;;;8.02;3.70;;;;;;;;;;5041039;28;20056;-71
2022/08/17 01:39:23;;;;;;;5.28;3.63;;;;;;;;;;5040735;28;20063;-74
2022/08/17 01:41:52;;;;;;;12.15;3.60;;;;;;;;;;5040223;28;20051;-69
2022/08/17 01:44:19;;;;;;;7.75;3.47;;;;;;;;;;5040085;28;20068;-70
2022/08/17 01:46:45;;;;;;;4.78;3.67;;;;;;;;;;5036694;28;20597;-70
2022/08/17 01:49:11;;;;;;;4.85;3.15;;;;;;;;;;5039043;28;20045;-72
2022/08/17 01:51:37;;;;;;;5.90;3.28;;;;;;;;;;5039428;28;20395;-70
2022/08/17 01:54:07;;;;;;;3.78;3.30;;;;;;;;;;5039641;28;20056;-72
2022/08/17 01:56:35;;;;;;;5.20;3.10;;;;;;;;;;5040839;28;20070;-71
2022/08/17 01:59:01;;;;;;;3.95;3.30;;;;;;;;;;5040765;28;20143;-69
2022/08/17 02:01:30;;;;;;;4.15;3.40;;;;;;;;;;5039945;28;20182;-69
2022/08/17 02:03:56;;;;;;;7.43;3.17;;;;;;;;;;5041307;28;20065;-70
2022/08/17 02:06:22;;;;;;;3.63;3.30;;;;;;;;;;5031316;28;20052;-70
2022/08/17 02:08:48;;;;;;;3.42;3.13;;;;;;;;;;5040623;28;20049;-75
2022/08/17 02:11:17;;;;;;;4.97;3.63;;;;;;;;;;5040342;28;20045;-72
2022/08/17 02:13:44;;;;;;;7.00;3.55;;;;;;;;;;5039357;28;20522;-72
2022/08/17 02:16:10;;;;;;;3.50;3.10;;;;;;;;;;5038170;28;20050;-70
2022/08/17 02:18:36;;;;;;;3.40;3.03;;;;;;;;;;5037660;28;20089;-70
2022/08/17 02:21:01;;;;;;;6.00;3.20;;;;;;;;;;5051863;28;20132;-71
2022/08/17 02:23:29;;;;;;;4.32;3.67;;;;;;;;;;5038316;28;20194;-70
2022/08/17 02:25:57;;;;;;;4.68;3.47;;;;;;;;;;5038931;28;20048;-71
2022/08/17 02:28:22;;;;;;;3.83;3.25;;;;;;;;;;5040653;28;20049;-70
2022/08/17 02:30:48;;;;;;;4.40;3.47;;;;;;;;;;5039297;28;20516;-71
2022/08/17 02:33:14;;;;;;;4.05;3.25;;;;;;;;;;5038667;28;20044;-71
2022/08/17 02:35:41;;;;;;;4.68;3.90;;;;;;;;;;5037982;28;20517;-72
2022/08/17 02:38:08;;;;;;;6.25;3.33;;;;;;;;;;5040016;28;20097;-71
2022/08/17 02:40:36;;;;;;;5.03;3.83;;;;;;;;;;5038682;28;20057;-71
2022/08/17 02:43:02;;;;;;;6.38;3.50;;;;;;;;;;5039749;28;20053;-71
2022/08/17 02:45:28;;;;;;;4.97;3.90;;;;;;;;;;5039656;28;20053;-71
2022/08/17 02:47:54;;;;;;;5.95;3.58;;;;;;;;;;5038745;28;20072;-72
2022/08/17 02:50:22;;;;;;;8.80;3.65;;;;;;;;;;5039720;28;20063;-72
2022/08/17 02:52:49;;;;;;;3.70;3.40;;;;;;;;;;5039414;28;20829;-71
2022/08/17 02:55:20;;;;;;;4.88;3.30;;;;;;;;;;5040149;28;20136;-71
2022/08/17 02:57:46;;;;;;;6.30;3.85;;;;;;;;;;5039266;28;20136;-72
2022/08/17 03:00:17;;;;;;;5.30;3.47;;;;;;;;;;5038597;28;20269;-71
2022/08/17 03:02:44;;;;;;;6.95;3.53;;;;;;;;;;5038472;28;20041;-71
2022/08/17 03:05:12;;;;;;;4.35;3.50;;;;;;;;;;5041624;28;20150;-71
2022/08/17 03:07:38;;;;;;;4.68;3.50;;;;;;;;;;5042524;28;20056;-71
2022/08/17 03:10:05;;;;;;;4.28;3.30;;;;;;;;;;5042169;28;20040;-71
2022/08/17 03:12:33;;;;;;;5.15;3.28;;;;;;;;;;5043332;28;20499;-70
2022/08/17 03:15:03;;;;;;;7.80;3.25;;;;;;;;;;5043455;28;20526;-70
2022/08/17 03:17:28;;;;;;;3.20;2.90;;;;;;;;;;5043260;28;20118;-71
2022/08/17 03:19:54;;;;;;;5.25;2.90;;;;;;;;;;5041994;28;20041;-70
2022/08/17 03:22:19;;;;;;;3.67;3.30;;;;;;;;;;5043728;28;20427;-71
2022/08/17 03:24:44;;;;;;;6.13;3.42;;;;;;;;;;5043227;28;20127;-71
2022/08/17 03:27:10;;;;;;;9.43;3.28;;;;;;;;;;5043382;28;20045;-71
2022/08/17 03:29:35;;;;;;;5.93;3.10;;;;;;;;;;5043016;28;20045;-71
2022/08/17 03:32:10;;;;;;;3.17;2.95;;;;;;;;;;5042044;28;20087;-71
2022/08/17 03:34:35;;;;;;;5.45;3.33;;;;;;;;;;5043140;28;20045;-71
2022/08/17 03:37:01;;;;;;;3.92;3.20;;;;;;;;;;5043125;28;20503;-70
2022/08/17 03:39:26;;;;;;;5.82;3.28;;;;;;;;;;5043104;28;20053;-71
2022/08/17 03:41:51;;;;;;;3.75;3.10;;;;;;;;;;5040846;28;20081;-70
2022/08/17 03:44:17;;;;;;;7.80;4.35;;;;;;;;;;5042358;28;20537;-71
2022/08/17 03:57:38;;;;;;;8.57;3.63;;;;;;;;;;5042979;28;20061;-71
2022/08/17 04:00:04;;;;;;;4.20;3.80;;;;;;;;;;5040310;28;20099;-70
2022/08/17 04:02:37;;;;;;;4.90;3.70;;;;;;;;;;5041474;28;20041;-71
2022/08/17 04:05:02;;;;;;;4.07;3.63;;;;;;;;;;5041769;28;20048;-71
2022/08/17 04:07:29;;;;;;;4.68;3.47;;;;;;;;;;5042798;28;20052;-71
2022/08/17 04:09:56;;;;;;;4.55;3.45;;;;;;;;;;5041945;28;20049;-71
2022/08/17 04:12:23;;;;;;;7.78;3.97;;;;;;;;;;5042024;28;20049;-71
2022/08/17 04:14:49;;;;;;;6.50;3.85;;;;;;;;;;5041294;28;20053;-70
2022/08/17 04:17:14;;;;;;;4.93;3.72;;;;;;;;;;5042225;28;20384;-71
2022/08/17 04:19:39;;;;;;;4.75;3.60;;;;;;;;;;5042586;28;20076;-71
2022/08/17 04:22:05;;;;;;;3.90;3.60;;;;;;;;;;5041234;28;20060;-71
2022/08/17 04:24:31;;;;;;;3.90;3.50;;;;;;;;;;5042223;28;20614;-71
2022/08/17 04:26:57;;;;;;;4.57;3.70;;;;;;;;;;5041811;28;20053;-70
2022/08/17 04:29:24;;;;;;;9.35;3.70;;;;;;;;;;5042141;28;20055;-71
2022/08/17 04:31:51;;;;;;;4.43;3.88;;;;;;;;;;5041382;28;20068;-70
2022/08/17 04:34:18;;;;;;;5.60;3.80;;;;;;;;;;5040812;28;20049;-71
2022/08/17 04:36:43;;;;;;;5.25;4.13;;;;;;;;;;5039852;28;20525;-70
2022/08/17 04:39:09;;;;;;;6.82;4.40;;;;;;;;;;5042597;28;20143;-71
2022/08/17 04:44:18;;;;;;;11.05;4.32;;;;;;;;;;5041024;28;20129;-71
2022/08/17 04:46:43;;;;;;;10.23;4.30;;;;;;;;;;5041450;28;20053;-69
2022/08/17 04:49:10;;;;;;;8.10;4.00;;;;;;;;;;5039911;28;20518;-71
2022/08/17 04:51:43;;;;;;;4.68;3.83;;;;;;;;;;5041511;28;20122;-70
2022/08/17 04:54:14;;;;;;;5.55;4.13;;;;;;;;;;5040461;28;20143;-71
2022/08/17 04:56:40;;;;;;;7.75;4.57;;;;;;;;;;5041843;28;20465;-71
2022/08/17 04:59:09;;;;;;;4.55;3.83;;;;;;;;;;5040642;28;20049;-70
2022/08/17 05:01:37;;;;;;;5.30;3.88;;;;;;;;;;5039653;28;20049;-71
2022/08/17 05:04:06;;;;;;;7.85;4.07;;;;;;;;;;5040344;28;20071;-70
2022/08/17 05:06:31;;;;;;;9.32;4.50;;;;;;;;;;5041570;28;20043;-71
2022/08/17 05:08:58;;;;;;;5.35;4.38;;;;;;;;;;5041229;28;20415;-70
2022/08/17 05:11:25;;;;;;;7.38;3.95;;;;;;;;;;5040651;28;20471;-71
2022/08/17 05:13:52;;;;;;;4.40;4.00;;;;;;;;;;5041161;28;20049;-71
2022/08/17 05:16:19;;;;;;;4.38;3.97;;;;;;;;;;5040447;28;20699;-70
2022/08/17 05:18:45;;;;;;;9.02;3.72;;;;;;;;;;5040995;28;20048;-70
2022/08/17 05:21:10;;;;;;;4.40;3.58;;;;;;;;;;5039212;28;20052;-70
2022/08/17 05:23:37;;;;;;;4.72;4.07;;;;;;;;;;5038067;28;20045;-71
2022/08/17 05:26:03;;;;;;;4.35;3.40;;;;;;;;;;5038933;28;21134;-70
2022/08/17 05:28:29;;;;;;;6.00;3.78;;;;;;;;;;5039779;28;20053;-71
2022/08/17 05:30:58;;;;;;;4.50;3.85;;;;;;;;;;5039654;28;20041;-70
2022/08/17 05:33:26;;;;;;;7.22;3.78;;;;;;;;;;5039008;28;20052;-71
2022/08/17 05:35:54;;;;;;;5.10;3.58;;;;;;;;;;5039865;28;20388;-71
2022/08/17 05:38:21;;;;;;;4.53;3.53;;;;;;;;;;5039588;28;20049;-71
2022/08/17 05:40:47;;;;;;;5.97;3.42;;;;;;;;;;5038777;28;20128;-70
2022/08/17 05:43:19;;;;;;;8.85;3.67;;;;;;;;;;5039123;28;20045;-69
2022/08/17 05:46:02;;;;;;;7.55;3.40;;;;;;;;;;5041070;28;20037;-70
2022/08/17 05:48:34;;;;;;;6.38;3.03;;;;;;;;;;5037249;28;20052;-70
2022/08/17 05:51:35;;;;;;;3.53;3.22;;;;;;;;;;5039539;28;20044;-70
2022/08/17 05:54:16;;;;;;;4.05;3.67;;;;;;;;;;5037555;28;20099;-70
2022/08/17 05:56:47;;;;;;;3.63;3.28;;;;;;;;;;5039840;28;20052;-70
2022/08/17 05:59:17;;;;;;;5.28;3.53;;;;;;;;;;5040291;28;20098;-70
2022/08/17 06:02:01;;;;;;;3.78;3.00;;;;;;;;;;5038625;28;20037;-70
2022/08/17 06:05:05;;;;;;;5.20;3.17;;;;;;;;;;5037033;28;20053;-70
2022/08/17 06:07:44;;;;;;;7.70;3.25;;;;;;;;;;5030509;28;20787;-70
2022/08/17 06:10:41;;;;;;;4.47;3.20;;;;;;;;;;5039003;28;20305;-70
2022/08/17 06:13:18;;;;;;;3.95;3.28;;;;;;;;;;5031472;28;20411;-70
2022/08/17 06:16:00;;;;;;;5.47;3.25;;;;;;;;;;5038779;28;20045;-70
2022/08/17 06:18:35;;;;;;;7.07;3.25;;;;;;;;;;5036986;28;20049;-70
2022/08/17 06:21:03;;;;;;;6.38;3.50;;;;;;;;;;5039911;28;20049;-71
2022/08/17 06:23:36;;;;;;;5.47;3.35;;;;;;;;;;5036540;28;20055;-70
2022/08/17 06:26:10;;;;;;;5.82;3.10;;;;;;;;;;5039493;28;20049;-74
2022/08/17 06:29:01;;;;;;;6.75;3.40;;;;;;;;;;5038700;28;20045;-74
2022/08/17 06:31:37;;;;;;;5.15;3.00;;;;;;;;;;5038285;28;20136;-76
2022/08/17 06:34:07;;;;;;;4.97;3.30;;;;;;;;;;5038486;28;20060;-77
2022/08/17 06:36:32;;;;;;;5.90;3.25;;;;;;;;;;5038984;28;20053;-74
2022/08/17 06:39:21;;;;;;;5.28;3.83;;;;;;;;;;5039018;28;20111;-73
2022/08/17 06:42:14;;;;;;;10.50;3.30;;;;;;;;;;5042555;28;20052;-74
2022/08/17 06:44:53;;;;;;;6.28;4.18;;;;;;;;;;5041385;28;20457;-74
2022/08/17 06:47:33;;;;;;;5.82;3.65;;;;;;;;;;5044014;28;20072;-74
2022/08/17 06:50:26;;;;;;;7.28;3.90;;;;;;;;;;5042694;28;20136;-75
2022/08/17 06:52:57;;;;;;;10.70;3.92;;;;;;;;;;5025409;28;20060;-74
2022/08/17 06:55:25;;;;;;;;;;;;;;;;;;5026294;28;20069;-74
2022/08/17 06:57:57;;;;;;;11.98;3.97;;;;;;;;;;5043403;28;19920;-73
2022/08/17 07:00:28;;;;;;;8.73;3.83;;;;;;;;;;5040937;28;20076;-72
2022/08/17 07:03:22;;;;;;;6.50;3.90;;;;;;;;;;5043570;28;20045;-74
2022/08/17 07:05:55;;;;;;;7.43;3.78;;;;;;;;;;5013328;28;20053;-74
2022/08/17 07:08:46;;;;;;;8.25;3.42;;;;;;;;;;5041442;28;20048;-73
2022/08/17 07:11:22;;;;;;;4.55;3.28;;;;;;;;;;5042847;28;20136;-75
2022/08/17 07:14:25;;;;;;;6.53;3.60;;;;;;;;;;5041923;28;20568;-72
2022/08/17 07:16:54;;;;;;;5.30;3.30;;;;;;;;;;5040972;28;20111;-72
2022/08/17 07:19:23;;;;;;;6.78;3.30;;;;;;;;;;5043298;28;20053;-73
2022/08/17 07:21:56;;;;;;;5.03;3.30;;;;;;;;;;5042316;28;20049;-74
2022/08/17 07:24:44;;;;;;;6.40;3.47;;;;;;;;;;5041544;28;20049;-73
2022/08/17 07:27:19;;;;;;;8.43;3.42;;;;;;;;;;5042290;28;20047;-75
2022/08/17 07:29:50;;;;;;;7.82;3.38;;;;;;;;;;5042897;28;20045;-71
2022/08/17 07:32:21;;;;;;;7.88;3.45;;;;;;;;;;5041163;28;20053;-72
2022/08/17 07:35:01;;;;;;;;;;;;;;;;;;5042022;28;20053;-73
2022/08/17 07:37:26;;;;;;;3.83;3.08;;;;;;;;;;5043195;28;19920;-73
2022/08/17 07:39:52;;;;;;;6.57;3.05;;;;;;;;;;5042814;28;20411;-72
2022/08/17 07:42:17;;;;;;;10.18;3.25;;;;;;;;;;5042400;28;20131;-73
2022/08/17 07:44:52;;;;;;;2.90;2.60;;;;;;;;;;5040039;28;20060;-73
2022/08/17 07:50:24;;;;;;;4.47;2.80;;;;;;;;;;5041023;28;20391;-74
2022/08/17 07:52:49;;;;;;;3.38;2.65;;;;;;;;;;5041140;28;20053;-73
2022/08/17 07:55:28;;;;;;;3.65;2.75;;;;;;;;;;5041247;28;20060;-73
2022/08/17 07:57:56;;;;;;;3.22;2.75;;;;;;;;;;5042801;28;20080;-73
2022/08/17 08:00:23;;;;;;;6.03;2.38;;;;;;;;;;5041827;28;20053;-72
2022/08/17 08:03:03;;;;;;;4.60;2.70;;;;;;;;;;5042258;28;20049;-73
2022/08/17 08:05:30;;;;;;;5.20;2.60;;;;;;;;;;5041833;28;20132;-73
2022/08/17 08:08:16;;;;;;;5.45;2.83;;;;;;;;;;5042422;28;20092;-74
2022/08/17 08:10:42;;;;;;;5.85;2.40;;;;;;;;;;5042146;28;20045;-73
2022/08/17 08:13:09;;;;;;;3.65;2.30;;;;;;;;;;5041912;28;20048;-73
2022/08/17 08:15:47;;;;;;;4.82;2.65;;;;;;;;;;5042393;28;20132;-75
2022/08/17 08:18:28;;;;;;;3.85;2.78;;;;;;;;;;5040722;28;20099;-74
2022/08/17 08:21:02;;;;;;;8.45;2.85;;;;;;;;;;5042047;28;20120;-73
2022/08/17 08:23:40;;;;;;;3.10;2.55;;;;;;;;;;5041547;28;20060;-72
2022/08/17 08:26:05;;;;;;;2.60;2.40;;;;;;;;;;5041626;28;20055;-73
2022/08/17 08:29:00;;;;;;;3.85;2.83;;;;;;;;;;5041625;28;20040;-73
2022/08/17 08:31:37;;;;;;;5.43;2.30;;;;;;;;;;5040078;28;21032;-76
2022/08/17 08:34:11;;;;;;;5.47;2.58;;;;;;;;;;5039856;28;20044;-74
2022/08/17 08:36:56;;;;;;;3.63;2.58;;;;;;;;;;5041946;28;20053;-72
2022/08/17 08:39:37;;;;;;;3.20;2.72;;;;;;;;;;5041105;28;20050;-71
2022/08/17 08:42:29;;;;;;;5.55;2.33;;;;;;;;;;5041722;28;20045;-72
2022/08/17 08:45:27;;;;;;;5.40;2.60;;;;;;;;;;5041062;28;20076;-71
2022/08/17 08:47:52;;;;;;;6.75;2.60;;;;;;;;;;5020101;28;20076;-71
2022/08/17 08:50:51;;;;;;;5.95;2.42;;;;;;;;;;5040308;28;20407;-73
2022/08/17 08:53:47;;;;;;;5.72;2.60;;;;;;;;;;5041095;28;20506;-73
2022/08/17 08:56:35;;;;;;;5.38;2.30;;;;;;;;;;5041047;28;20049;-72
2022/08/17 08:59:13;;;;;;;8.38;2.67;;;;;;;;;;5042021;28;20044;-73
2022/08/17 09:02:12;;;;;;;3.00;2.42;;;;;;;;;;5040330;28;20049;-73
2022/08/17 09:04:54;;;;;;;2.60;2.25;;;;;;;;;;5037827;28;20052;-73
2022/08/17 09:07:54;;;;;;;4.72;2.53;;;;;;;;;;5041529;28;20136;-73
2022/08/17 09:10:56;;;;;;;6.97;2.45;;;;;;;;;;5039171;28;20484;-74
2022/08/17 09:13:38;;;;;;;3.30;2.22;;;;;;;;;;5038368;28;20041;-75
2022/08/17 09:16:28;;;;;;;5.97;2.50;;;;;;;;;;5040390;28;20088;-74
2022/08/17 09:19:03;;;;;;;3.42;2.40;;;;;;;;;;5039682;28;20053;-75
2022/08/17 09:21:39;;;;;;;6.57;2.90;;;;;;;;;;5040927;28;20388;-74
2022/08/17 09:24:12;;;;;;;2.60;2.20;;;;;;;;;;5038973;28;21034;-74
2022/08/17 09:26:58;;;;;;;2.92;2.33;;;;;;;;;;5041342;28;20084;-74
2022/08/17 09:29:27;;;;;;;4.03;2.28;;;;;;;;;;5040737;28;20503;-74
2022/08/17 09:31:56;;;;;;;2.53;2.17;;;;;;;;;;5040686;28;20052;-73
2022/08/17 09:34:30;;;;;;;2.70;2.50;;;;;;;;;;5039335;28;20083;-73
2022/08/17 09:36:59;;;;;;;6.95;2.45;;;;;;;;;;5040025;28;20128;-73
2022/08/17 09:39:33;;;;;;;5.90;2.50;;;;;;;;;;5040680;28;20068;-75
2022/08/17 09:42:36;;;;;;;2.22;2.03;;;;;;;;;;5040100;28;20048;-73
2022/08/17 09:45:24;;;;;;;2.05;1.90;;;;;;;;;;5038085;28;20131;-73
2022/08/17 09:48:13;;;;;;;2.50;2.25;;;;;;;;;;5040876;28;20564;-73
2022/08/17 09:50:45;;;;;;;4.10;2.67;;;;;;;;;;5037901;28;20114;-73
2022/08/17 09:53:11;;;;;;;4.60;2.22;;;;;;;;;;5040134;28;20045;-73
2022/08/17 09:55:50;;;;;;;7.00;2.38;;;;;;;;;;5039495;28;20111;-74
2022/08/17 09:58:19;;;;;;;3.40;1.88;;;;;;;;;;5040342;28;20052;-74
2022/08/17 10:00:56;;;;;;;4.75;2.47;;;;;;;;;;5038820;28;20097;-73
2022/08/17 10:03:44;;;;;;;4.22;2.47;;;;;;;;;;5038748;28;20045;-73
2022/08/17 10:06:32;;;;;;;4.82;2.30;;;;;;;;;;5038682;28;20064;-73
2022/08/17 10:09:08;;;;;;;2.90;2.13;;;;;;;;;;5040087;28;20052;-73
2022/08/17 10:15:06;;;;;;;4.60;2.33;;;;;;;;;;5036247;28;20068;-72
2022/08/17 10:17:38;;;;;;;3.30;2.30;;;;;;;;;;4988435;28;20052;-72
2022/08/17 10:20:12;;;;;;;5.85;2.38;;;;;;;;;;5038252;28;20044;-70
2022/08/17 10:28:59;;;;;;;3.70;2.15;;;;;;;;;;4981336;28;20898;-72
2022/08/17 10:31:29;;;;;;;3.28;2.45;;;;;;;;;;4981502;28;20053;-72
2022/08/17 10:34:17;;;;;;;3.00;2.47;;;;;;;;;;5024260;28;20106;-70
2022/08/17 10:37:07;;;;;;;4.07;2.45;;;;;;;;;;5037457;28;20045;-70
2022/08/17 10:39:40;;;;;;;2.20;2.00;;;;;;;;;;5039478;28;20045;-71
2022/08/17 10:42:23;;;;;;;3.08;2.20;;;;;;;;;;5039804;28;20044;-70
2022/08/17 10:44:59;;;;;;;2.72;2.50;;;;;;;;;;5039500;28;20132;-72
2022/08/17 10:47:50;;;;;;;5.03;2.30;;;;;;;;;;5039592;28;20045;-71
2022/08/17 10:50:42;;;;;;;3.67;2.42;;;;;;;;;;5038859;28;29847;-74
2022/08/17 10:53:08;;;;;;;4.82;2.55;;;;;;;;;;5039219;28;20545;-72
2022/08/17 10:55:34;;;;;;;3.85;2.28;;;;;;;;;;5039735;28;20052;-71
2022/08/17 10:58:20;;;;;;;2.50;2.30;;;;;;;;;;5039196;28;20103;-77
2022/08/17 11:00:52;;;;;;;4.15;2.30;;;;;;;;;;5039220;28;20041;-70
2022/08/17 11:03:21;;;;;;;3.35;2.50;;;;;;;;;;5039744;28;20047;-73
2022/08/17 11:06:12;;;;;;;6.18;2.40;;;;;;;;;;5039784;28;20045;-72
2022/08/17 11:08:50;;;;;;;8.30;2.60;;;;;;;;;;5007546;28;20486;-71
2022/08/17 11:11:56;;;;;;;3.53;2.45;;;;;;;;;;5038664;28;20133;-77
2022/08/17 11:14:34;;;;;;;3.53;2.20;;;;;;;;;;5038837;28;20049;-74
2022/08/17 11:17:03;;;;;;;7.45;2.10;;;;;;;;;;5039023;28;20466;-71
2022/08/17 11:19:42;;;;;;;4.25;2.80;;;;;;;;;;5039968;28;20060;-71
2022/08/17 11:22:29;;;;;;;2.95;2.45;;;;;;;;;;5038406;28;20079;-71
2022/08/17 11:25:06;;;;;;;5.18;2.28;;;;;;;;;;5039420;28;20434;-72
2022/08/17 11:27:34;;;;;;;3.50;2.55;;;;;;;;;;5043269;28;20040;-76
2022/08/17 11:30:03;;;;;;;3.22;2.40;;;;;;;;;;5042655;28;20053;-75
2022/08/17 11:32:38;;;;;;;3.30;2.20;;;;;;;;;;5043244;28;20044;-76
2022/08/17 11:35:21;;;;;;;8.27;2.50;;;;;;;;;;5042069;28;20053;-73
2022/08/17 11:38:12;;;;;;;3.03;2.42;;;;;;;;;;5043511;28;20051;-72
2022/08/17 11:40:37;;;;;;;7.53;2.55;;;;;;;;;;5040614;28;20106;-72
2022/08/17 11:43:12;;;;;;;5.35;2.30;;;;;;;;;;5042290;28;20053;-72
2022/08/17 11:46:13;;;;;;;31.67;3.67;;;;;;;;;;5042397;28;20045;-72
2022/08/17 11:51:58;;;;;;;3.10;2.47;;;;;;;;;;5042707;28;20079;-73
2022/08/17 11:54:31;;;;;;;5.80;2.50;;;;;;;;;;5040620;28;21089;-73
2022/08/17 11:56:58;;;;;;;3.45;2.75;;;;;;;;;;5042058;28;20392;-72
2022/08/17 11:59:34;;;;;;;5.30;2.50;;;;;;;;;;5042603;28;20127;-72
2022/08/17 12:02:02;;;;;;;3.10;2.42;;;;;;;;;;5041852;28;20107;-73
2022/08/17 12:04:34;;;;;;;4.25;2.80;;;;;;;;;;5042073;28;20521;-72
2022/08/17 12:07:19;;;;;;;6.35;2.70;;;;;;;;;;5041916;28;20136;-72
2022/08/17 12:09:48;;;;;;;4.32;2.50;;;;;;;;;;5042558;28;20427;-73
2022/08/17 12:12:19;;;;;;;10.10;2.47;;;;;;;;;;5041264;28;20052;-76
2022/08/17 12:14:58;;;;;;;2.78;2.38;;;;;;;;;;5041656;28;20045;-72
2022/08/17 12:17:29;;;;;;;5.55;2.78;;;;;;;;;;5040560;28;20040;-72
2022/08/17 12:20:11;;;;;;;4.53;2.60;;;;;;;;;;5039962;28;20530;-73
2022/08/17 12:23:11;;;;;;;2.75;2.35;;;;;;;;;;5039351;28;20051;-74
2022/08/17 12:25:55;;;;;;;5.82;2.47;;;;;;;;;;5041171;28;20886;-72
2022/08/17 12:28:21;;;;;;;2.80;2.50;;;;;;;;;;5038441;28;20048;-75
2022/08/17 12:30:50;;;;;;;2.75;2.55;;;;;;;;;;5041840;28;20056;-74
2022/08/17 12:33:20;;;;;;;5.55;2.30;;;;;;;;;;5039812;28;20057;-74
2022/08/17 12:35:46;;;;;;;5.87;2.57;;;;;;;;;;5041693;28;20051;-75
2022/08/17 12:38:14;;;;;;;3.67;2.60;;;;;;;;;;5039485;28;20047;-76
2022/08/17 12:40:52;;;;;;;5.25;2.53;;;;;;;;;;5039197;28;20060;-76
2022/08/17 12:43:20;;;;;;;4.32;2.13;;;;;;;;;;5040882;28;20044;-74
2022/08/17 12:45:55;;;;;;;3.00;2.40;;;;;;;;;;5041647;28;20095;-79
2022/08/17 12:48:25;;;;;;;3.95;2.35;;;;;;;;;;5041565;28;20415;-78
2022/08/17 12:50:57;;;;;;;8.40;2.50;;;;;;;;;;5041567;28;20099;-73
2022/08/17 12:53:29;;;;;;;6.22;2.42;;;;;;;;;;5040472;28;20040;-74
2022/08/17 12:55:56;;;;;;;2.88;2.60;;;;;;;;;;5041773;28;20049;-75
2022/08/17 12:58:30;;;;;;;6.22;2.70;;;;;;;;;;5041124;28;20048;-74
2022/08/17 13:01:03;;;;;;;4.13;2.45;;;;;;;;;;5041149;28;20405;-77
2022/08/17 13:03:36;;;;;;;5.85;2.50;;;;;;;;;;5038872;28;20876;-78
2022/08/17 13:06:08;;;;;;;4.78;2.45;;;;;;;;;;5041031;28;20114;-75
2022/08/17 13:08:34;;;;;;;3.35;2.65;;;;;;;;;;5041125;28;20510;-76
2022/08/17 13:11:15;;;;;;;4.40;2.47;;;;;;;;;;5039459;28;20139;-72
2022/08/17 13:13:43;;;;;;;2.80;2.50;;;;;;;;;;5042628;28;20049;-74
2022/08/17 13:16:13;;;;;;;3.15;2.28;;;;;;;;;;5039541;28;20049;-76
2022/08/17 13:19:08;;;;;;;8.30;2.63;;;;;;;;;;5039810;28;20053;-77
2022/08/17 13:21:36;;;;;;;3.17;2.55;;;;;;;;;;5039193;28;20045;-76
2022/08/17 13:24:23;;;;;;;4.80;2.15;;;;;;;;;;5025220;28;20503;-74
2022/08/17 13:27:00;;;;;;;2.60;2.40;;;;;;;;;;5009578;28;20048;-74
2022/08/17 13:29:30;;;;;;;6.25;2.40;;;;;;;;;;5039534;28;20157;-74
2022/08/17 13:32:08;;;;;;;3.88;2.53;;;;;;;;;;5039901;28;20052;-78
2022/08/17 13:34:44;;;;;;;3.97;2.63;;;;;;;;;;5036974;28;20079;-77
2022/08/17 13:37:25;;;;;;;2.97;2.70;;;;;;;;;;5041476;28;20057;-74
2022/08/17 13:40:03;;;;;;;3.28;2.20;;;;;;;;;;5040747;28;20057;-76
2022/08/17 13:42:40;;;;;;;6.75;2.53;;;;;;;;;;5020486;28;20135;-76
2022/08/17 13:45:36;;;;;;;3.33;2.40;;;;;;;;;;5039935;28;20040;-76
2022/08/17 13:48:07;;;;;;;4.53;2.42;;;;;;;;;;5037967;28;21066;-73
2022/08/17 13:50:35;;;;;;;4.20;2.75;;;;;;;;;;5040477;28;20136;-72
2022/08/17 13:53:01;;;;;;;4.30;2.60;;;;;;;;;;5040233;28;20048;-73
2022/08/17 13:55:29;;;;;;;2.47;2.28;;;;;;;;;;5040175;28;20048;-77
2022/08/17 13:57:55;;;;;;;5.28;2.20;;;;;;;;;;5040007;28;20498;-75
2022/08/17 14:00:35;;;;;;;3.10;2.17;;;;;;;;;;5039784;28;20832;-77
2022/08/17 14:03:01;;;;;;;2.33;2.00;;;;;;;;;;5040221;28;20076;-76
2022/08/17 14:05:29;;;;;;;6.03;2.28;;;;;;;;;;5038759;28;20044;-76
2022/08/17 14:08:01;;;;;;;2.38;2.17;;;;;;;;;;5039705;28;20083;-72
2022/08/17 14:10:28;;;;;;;3.53;2.33;;;;;;;;;;5040754;28;20049;-74
2022/08/17 14:12:54;;;;;;;5.57;2.53;;;;;;;;;;5039966;28;20135;-72
2022/08/17 14:15:23;;;;;;;5.00;2.40;;;;;;;;;;5039247;28;20041;-75
2022/08/17 14:17:49;;;;;;;2.80;2.40;;;;;;;;;;5038866;28;20132;-75
2022/08/17 14:20:18;;;;;;;3.00;2.55;;;;;;;;;;5037494;28;20056;-74
2022/08/17 14:22:48;;;;;;;3.25;2.50;;;;;;;;;;5040013;28;20407;-73
2022/08/17 14:25:18;;;;;;;5.28;2.10;;;;;;;;;;5039787;28;20048;-75
2022/08/17 14:27:44;;;;;;;2.90;2.07;;;;;;;;;;5040590;28;20045;-73
2022/08/17 14:30:10;;;;;;;3.80;2.25;;;;;;;;;;5038854;28;20041;-75
2022/08/17 14:32:37;;;;;;;6.70;2.20;;;;;;;;;;5040176;28;20049;-76
2022/08/17 14:35:04;;;;;;;2.70;2.08;;;;;;;;;;5038123;28;20090;-78
2022/08/17 14:37:30;;;;;;;3.28;2.17;;;;;;;;;;5040531;28;20045;-75
2022/08/17 14:40:02;;;;;;;2.03;1.92;;;;;;;;;;5040763;28;20404;-75
2022/08/17 14:42:31;;;;;;;2.25;2.03;;;;;;;;;;5004276;28;20079;-74
2022/08/17 14:45:04;;;;;;;5.90;2.30;;;;;;;;;;5021599;28;20037;-74
2022/08/17 14:47:40;;;;;;;3.15;2.10;;;;;;;;;;5040051;28;20067;-75
2022/08/17 14:50:10;;;;;;;3.42;1.90;;;;;;;;;;5039036;28;20621;-76
2022/08/17 14:52:39;;;;;;;5.28;2.35;;;;;;;;;;5037526;28;20045;-75
2022/08/17 14:55:05;;;;;;;2.58;2.30;;;;;;;;;;5039388;28;20037;-74
2022/08/17 14:57:32;;;;;;;7.75;2.33;;;;;;;;;;5040109;28;20067;-77
2022/08/17 14:59:58;;;;;;;2.33;1.88;;;;;;;;;;5042395;28;20167;-76
2022/08/17 15:02:27;;;;;;;2.50;2.30;;;;;;;;;;5041746;28;20052;-76
2022/08/17 15:04:52;;;;;;;2.92;2.22;;;;;;;;;;5044613;28;20063;-74
2022/08/17 15:07:19;;;;;;;5.13;2.20;;;;;;;;;;5044068;28;20104;-72
2022/08/17 15:09:44;;;;;;;5.45;2.00;;;;;;;;;;5041850;28;20060;-71
2022/08/17 15:12:16;;;;;;;2.85;2.20;;;;;;;;;;5043054;28;20120;-73
2022/08/17 15:14:42;;;;;;;3.53;2.00;;;;;;;;;;5042378;28;20049;-72
2022/08/17 15:17:07;;;;;;;3.33;2.08;;;;;;;;;;5041973;28;20089;-71
2022/08/17 15:19:33;;;;;;;4.10;2.25;;;;;;;;;;5043504;28;20415;-71
2022/08/17 15:21:58;;;;;;;7.75;2.20;;;;;;;;;;5042498;28;20079;-75
2022/08/17 15:24:23;;;;;;;8.63;2.28;;;;;;;;;;5042031;28;20052;-69
2022/08/17 15:26:50;;;;;;;7.05;1.85;;;;;;;;;;5044099;28;20084;-74
2022/08/17 15:29:15;;;;;;;8.73;3.47;;;;;;;;;;5042302;28;20076;-73
2022/08/17 15:31:41;;;;;;;2.95;2.13;;;;;;;;;;5042837;28;20199;-75
2022/08/17 15:34:07;;;;;;;2.40;2.20;;;;;;;;;;5040881;28;20040;-73
2022/08/17 15:36:32;;;;;;;4.32;2.00;;;;;;;;;;5042138;28;20426;-75
2022/08/17 15:38:58;;;;;;;2.75;2.17;;;;;;;;;;5043165;28;20411;-74
2022/08/17 15:41:26;;;;;;;5.65;1.88;;;;;;;;;;5043125;28;20509;-73
2022/08/17 15:43:53;;;;;;;3.83;2.28;;;;;;;;;;5042910;28;20049;-77